createdAt,value
2022-12-01T00:00:58.589Z,628.13
2022-12-01T00:01:58.717Z,628.19
2022-12-01T00:02:58.660Z,628.03
2022-12-01T00:03:58.600Z,627.86
2022-12-01T00:04:58.606Z,627.99
2022-12-01T00:05:58.603Z,628.42
2022-12-01T00:06:58.609Z,628.17
2022-12-01T00:07:58.640Z,628.2
2022-12-01T00:08:58.603Z,627.7
2022-12-01T00:09:58.627Z,627.82
2022-12-01T00:10:58.603Z,627.44
2022-12-01T00:11:58.618Z,627.46
2022-12-01T00:12:58.628Z,627.07
2022-12-01T00:13:58.615Z,626.85
2022-12-01T00:14:58.620Z,625.84
2022-12-01T00:15:58.745Z,625.64
2022-12-01T00:16:58.692Z,625.08
2022-12-01T00:18:01.626Z,624.52
2022-12-01T00:18:58.619Z,623.46
2022-12-01T00:19:58.633Z,623.25
2022-12-01T00:20:58.625Z,623.36
2022-12-01T00:21:58.643Z,623.17
2022-12-01T00:22:58.624Z,622.97
2022-12-01T00:23:58.636Z,623.57
2022-12-01T00:24:58.624Z,622.84
2022-12-01T00:25:58.658Z,623.04
2022-12-01T00:26:58.651Z,623.06
2022-12-01T00:27:58.638Z,622.56
2022-12-01T00:29:01.815Z,623.07
2022-12-01T00:29:58.632Z,623.5
2022-12-01T00:30:58.635Z,623.18
2022-12-01T00:31:58.707Z,623.23
2022-12-01T00:32:58.649Z,623.39
2022-12-01T00:33:58.649Z,623.6
2022-12-01T00:34:58.649Z,623.78
2022-12-01T00:35:58.645Z,624.63
2022-12-01T00:36:58.678Z,625.83
2022-12-01T00:37:58.655Z,625.76
2022-12-01T00:38:58.657Z,626.27
2022-12-01T00:39:58.651Z,626.86
2022-12-01T00:40:58.660Z,627.1
2022-12-01T00:41:58.713Z,627.6
2022-12-01T00:42:58.655Z,628.11
2022-12-01T00:43:58.654Z,628.98
2022-12-01T00:44:58.659Z,628.82
2022-12-01T00:45:58.715Z,629.25
2022-12-01T00:46:58.694Z,629.52
2022-12-01T00:47:58.661Z,629.57
2022-12-01T00:48:58.667Z,629.93
2022-12-01T00:49:58.678Z,630
2022-12-01T00:50:58.665Z,630.32
2022-12-01T00:51:58.690Z,630.89
2022-12-01T00:52:58.680Z,631.41
2022-12-01T00:53:58.678Z,631.77
2022-12-01T00:54:58.688Z,632.1
2022-12-01T00:55:58.680Z,632.79
2022-12-01T00:56:58.704Z,632.89
2022-12-01T00:57:58.715Z,633.9
2022-12-01T00:58:58.681Z,634.29
2022-12-01T00:59:58.692Z,634.45
2022-12-01T01:00:58.709Z,634.24
2022-12-01T01:01:58.780Z,634.13
2022-12-01T01:02:58.693Z,633.76
2022-12-01T01:03:58.701Z,634.13
2022-12-01T01:04:58.693Z,634.37
2022-12-01T01:05:58.699Z,633.9
2022-12-01T01:06:58.727Z,634.82
2022-12-01T01:07:58.720Z,634.47
2022-12-01T01:08:58.705Z,634.86
2022-12-01T01:09:58.705Z,635.07
2022-12-01T01:10:58.706Z,635.59
2022-12-01T01:12:02.057Z,635.04
2022-12-01T01:12:58.703Z,635.03
2022-12-01T01:13:58.726Z,635.77
2022-12-01T01:14:58.734Z,635.53
2022-12-01T01:15:58.707Z,636.03
2022-12-01T01:16:58.722Z,635.89
2022-12-01T01:17:58.718Z,636.39
2022-12-01T01:18:58.710Z,636.59
2022-12-01T01:19:58.720Z,636.57
2022-12-01T01:20:58.720Z,636.61
2022-12-01T01:21:58.715Z,637.13
2022-12-01T01:23:01.728Z,637.48
2022-12-01T01:23:58.724Z,637.31
2022-12-01T01:24:58.726Z,636.97
2022-12-01T01:25:58.759Z,636.81
2022-12-01T01:26:58.724Z,637.19
2022-12-01T01:27:58.731Z,636.48
2022-12-01T01:28:58.725Z,636.85
2022-12-01T01:29:58.757Z,636.73
2022-12-01T01:30:58.813Z,636.53
2022-12-01T01:31:58.735Z,636.34
2022-12-01T01:32:58.741Z,635.78
2022-12-01T01:34:01.710Z,635.59
2022-12-01T01:34:58.734Z,635.8
2022-12-01T01:35:58.737Z,635.43
2022-12-01T01:36:58.752Z,634.73
2022-12-01T01:37:58.748Z,634.31
2022-12-01T01:38:58.746Z,634.36
2022-12-01T01:39:58.768Z,634.17
2022-12-01T01:40:58.743Z,634.35
2022-12-01T01:41:58.751Z,634.54
2022-12-01T01:42:58.754Z,634.45
2022-12-01T01:43:58.759Z,633.28
2022-12-01T01:44:58.751Z,633.66
2022-12-01T01:45:58.797Z,632.76
2022-12-01T01:46:58.763Z,633.5
2022-12-01T01:47:58.759Z,632.92
2022-12-01T01:48:58.756Z,631.87
2022-12-01T01:49:58.766Z,631.54
2022-12-01T01:50:58.772Z,632.13
2022-12-01T01:51:58.778Z,632.14
2022-12-01T01:52:58.775Z,632.63
2022-12-01T01:53:58.774Z,632.06
2022-12-01T01:54:58.776Z,632.41
2022-12-01T01:55:58.804Z,633.33
2022-12-01T01:56:58.775Z,633.01
2022-12-01T01:57:58.775Z,632.79
2022-12-01T01:58:58.784Z,632.43
2022-12-01T01:59:58.797Z,632.42
2022-12-01T02:00:58.908Z,632.25
2022-12-01T02:01:58.833Z,633.43
2022-12-01T02:02:58.842Z,632.48
2022-12-01T02:03:58.838Z,632.65
2022-12-01T02:04:58.904Z,633.95
2022-12-01T02:06:03.412Z,634.28
2022-12-01T02:06:58.791Z,634.05
2022-12-01T02:07:58.886Z,634.6
2022-12-01T02:08:58.825Z,634.59
2022-12-01T02:09:58.811Z,634.43
2022-12-01T02:10:58.823Z,634.07
2022-12-01T02:11:58.841Z,634.4
2022-12-01T02:12:58.832Z,634.98
2022-12-01T02:13:58.820Z,634.65
2022-12-01T02:14:58.845Z,633.69
2022-12-01T02:15:58.806Z,633.2
2022-12-01T02:16:58.909Z,633.37
2022-12-01T02:17:58.874Z,632.96
2022-12-01T02:18:58.825Z,632.58
2022-12-01T02:19:58.805Z,632.23
2022-12-01T02:20:58.808Z,632.61
2022-12-01T02:21:58.821Z,632.07
2022-12-01T02:22:58.831Z,631.95
2022-12-01T02:23:58.824Z,631.51
2022-12-01T02:24:58.825Z,631.83
2022-12-01T02:25:58.815Z,631.7
2022-12-01T02:26:58.815Z,631.75
2022-12-01T02:27:58.843Z,630.77
2022-12-01T02:28:58.844Z,631.35
2022-12-01T02:29:58.858Z,630.94
2022-12-01T02:30:58.840Z,630.95
2022-12-01T02:31:58.831Z,631.26
2022-12-01T02:32:58.845Z,631.06
2022-12-01T02:33:58.877Z,630.7
2022-12-01T02:34:58.833Z,630.31
2022-12-01T02:35:58.836Z,630.68
2022-12-01T02:36:58.840Z,629.27
2022-12-01T02:37:58.855Z,629.23
2022-12-01T02:38:58.843Z,628.17
2022-12-01T02:39:58.843Z,627.86
2022-12-01T02:40:58.847Z,628.04
2022-12-01T02:41:58.852Z,627.86
2022-12-01T02:42:58.861Z,627.88
2022-12-01T02:43:58.842Z,627.65
2022-12-01T02:45:01.932Z,627.51
2022-12-01T02:45:58.891Z,627.41
2022-12-01T02:46:58.850Z,628.01
2022-12-01T02:47:58.879Z,627.84
2022-12-01T02:48:58.850Z,627.81
2022-12-01T02:49:58.879Z,627.8
2022-12-01T02:50:58.859Z,627.93
2022-12-01T02:51:58.855Z,627.24
2022-12-01T02:52:58.886Z,627.11
2022-12-01T02:53:58.863Z,626.18
2022-12-01T02:54:58.859Z,625.65
2022-12-01T02:56:01.620Z,625
2022-12-01T02:56:58.868Z,623.65
2022-12-01T02:57:58.909Z,623.29
2022-12-01T02:58:58.863Z,623.27
2022-12-01T02:59:58.878Z,621.95
2022-12-01T03:00:58.912Z,622.54
2022-12-01T03:01:58.877Z,621.92
2022-12-01T03:02:58.957Z,621.2
2022-12-01T03:03:58.871Z,620.81
2022-12-01T03:04:58.873Z,620.1
2022-12-01T03:05:58.906Z,619.56
2022-12-01T03:06:58.875Z,619.14
2022-12-01T03:07:58.935Z,618.72
2022-12-01T03:08:58.887Z,618.53
2022-12-01T03:09:58.886Z,617.64
2022-12-01T03:10:58.881Z,617.72
2022-12-01T03:11:58.886Z,616.97
2022-12-01T03:12:58.908Z,616.6
2022-12-01T03:13:58.893Z,616.76
2022-12-01T03:14:58.900Z,615.64
2022-12-01T03:15:58.945Z,616.01
2022-12-01T03:16:58.894Z,615.31
2022-12-01T03:17:58.916Z,615.27
2022-12-01T03:18:58.903Z,614.96
2022-12-01T03:19:58.900Z,615.64
2022-12-01T03:20:58.900Z,614.81
2022-12-01T03:21:58.929Z,614.95
2022-12-01T03:22:58.932Z,615.08
2022-12-01T03:23:58.914Z,615.9
2022-12-01T03:24:58.905Z,615.82
2022-12-01T03:25:58.918Z,616
2022-12-01T03:26:58.908Z,616.77
2022-12-01T03:28:20.528Z,616.71
2022-12-01T03:28:58.910Z,617.29
2022-12-01T03:29:58.920Z,618.03
2022-12-01T03:30:58.944Z,618.35
2022-12-01T03:31:58.916Z,618.74
2022-12-01T03:32:58.947Z,618.73
2022-12-01T03:33:58.930Z,617.97
2022-12-01T03:34:58.919Z,618.22
2022-12-01T03:35:58.921Z,618.29
2022-12-01T03:36:58.924Z,617.99
2022-12-01T03:37:58.979Z,617.81
2022-12-01T03:39:01.944Z,617.46
2022-12-01T03:40:00.741Z,616.73
2022-12-01T03:40:58.939Z,617.11
2022-12-01T03:41:58.944Z,617.03
2022-12-01T03:42:58.963Z,617.79
2022-12-01T03:43:59.133Z,617.36
2022-12-01T03:44:58.945Z,617.61
2022-12-01T03:45:59.013Z,617.55
2022-12-01T03:46:58.939Z,617.21
2022-12-01T03:47:58.970Z,617.42
2022-12-01T03:48:58.948Z,618.17
2022-12-01T03:50:02.147Z,617.89
2022-12-01T03:50:58.952Z,617.85
2022-12-01T03:51:58.956Z,617.61
2022-12-01T03:52:58.978Z,617.8
2022-12-01T03:53:58.983Z,617.96
2022-12-01T03:54:58.952Z,618.32
2022-12-01T03:55:58.952Z,617.76
2022-12-01T03:56:58.957Z,619.03
2022-12-01T03:57:58.979Z,619.2
2022-12-01T03:58:58.959Z,619.88
2022-12-01T03:59:58.964Z,619.74
2022-12-01T04:01:01.990Z,619.95
2022-12-01T04:01:59.054Z,620.33
2022-12-01T04:02:59.067Z,621.33
2022-12-01T04:03:58.965Z,621.44
2022-12-01T04:04:58.974Z,621.3
2022-12-01T04:05:58.969Z,622.01
2022-12-01T04:06:58.977Z,622.52
2022-12-01T04:07:59.139Z,622.73
2022-12-01T04:08:58.978Z,622.68
2022-12-01T04:09:59.010Z,623.15
2022-12-01T04:10:58.981Z,623.3
2022-12-01T04:11:58.979Z,623.81
2022-12-01T04:12:59.013Z,624.22
2022-12-01T04:13:58.982Z,624.53
2022-12-01T04:14:58.983Z,624.75
2022-12-01T04:15:59.048Z,625.62
2022-12-01T04:16:58.986Z,625.42
2022-12-01T04:17:59.009Z,625.92
2022-12-01T04:18:58.987Z,626.83
2022-12-01T04:19:58.996Z,626.46
2022-12-01T04:20:58.991Z,626.65
2022-12-01T04:21:58.996Z,626.12
2022-12-01T04:22:59.036Z,626.8
2022-12-01T04:23:58.998Z,626.6
2022-12-01T04:24:59.004Z,626.78
2022-12-01T04:25:59.023Z,626.4
2022-12-01T04:26:59.000Z,626.44
2022-12-01T04:27:59.025Z,625.7
2022-12-01T04:28:59.012Z,625.53
2022-12-01T04:29:59.013Z,625.35
2022-12-01T04:30:59.072Z,625.3
2022-12-01T04:31:59.015Z,624.99
2022-12-01T04:32:59.037Z,624.83
2022-12-01T04:33:59.015Z,624.24
2022-12-01T04:34:59.016Z,624.62
2022-12-01T04:35:59.020Z,624.4
2022-12-01T04:36:59.023Z,625.5
2022-12-01T04:37:59.051Z,625.11
2022-12-01T04:38:59.029Z,625.29
2022-12-01T04:39:59.021Z,624.6
2022-12-01T04:40:59.034Z,624.28
2022-12-01T04:41:59.053Z,624.24
2022-12-01T04:42:59.060Z,624.45
2022-12-01T04:43:59.033Z,623.4
2022-12-01T04:44:59.037Z,624.27
2022-12-01T04:45:59.031Z,624.67
2022-12-01T04:46:59.109Z,624.97
2022-12-01T04:47:59.063Z,624.6
2022-12-01T04:48:59.039Z,625.67
2022-12-01T04:49:59.073Z,625.72
2022-12-01T04:50:59.045Z,626.01
2022-12-01T04:51:59.039Z,625.88
2022-12-01T04:52:59.093Z,626.01
2022-12-01T04:53:59.052Z,626
2022-12-01T04:54:59.050Z,626.04
2022-12-01T04:55:59.047Z,626.26
2022-12-01T04:56:59.053Z,626.92
2022-12-01T04:57:59.105Z,626.77
2022-12-01T04:58:59.051Z,626.8
2022-12-01T04:59:59.058Z,626.94
2022-12-01T05:00:59.131Z,627.11
2022-12-01T05:01:59.105Z,626.41
2022-12-01T05:02:59.080Z,626.77
2022-12-01T05:03:59.064Z,626.6
2022-12-01T05:04:59.060Z,626.43
2022-12-01T05:05:59.068Z,626.4
2022-12-01T05:06:59.067Z,626.06
2022-12-01T05:07:59.172Z,625.98
2022-12-01T05:08:59.082Z,625.81
2022-12-01T05:09:59.068Z,625.48
2022-12-01T05:10:59.070Z,624.6
2022-12-01T05:12:02.102Z,624.02
2022-12-01T05:12:59.089Z,623.84
2022-12-01T05:13:59.104Z,622.87
2022-12-01T05:14:59.086Z,622.41
2022-12-01T05:15:59.097Z,621.66
2022-12-01T05:16:59.083Z,621.69
2022-12-01T05:17:59.116Z,621.72
2022-12-01T05:18:59.182Z,621.48
2022-12-01T05:19:59.139Z,620.95
2022-12-01T05:20:59.093Z,621.3
2022-12-01T05:21:59.092Z,620.67
2022-12-01T05:23:08.982Z,621.03
2022-12-01T05:23:59.089Z,620.33
2022-12-01T05:24:59.095Z,620.15
2022-12-01T05:25:59.091Z,619.61
2022-12-01T05:26:59.112Z,619.79
2022-12-01T05:27:59.094Z,619.47
2022-12-01T05:28:59.106Z,619.76
2022-12-01T05:29:59.154Z,619.17
2022-12-01T05:30:59.171Z,618.88
2022-12-01T05:31:59.133Z,619.57
2022-12-01T05:32:59.107Z,618.68
2022-12-01T05:33:59.111Z,618.7
2022-12-01T05:34:59.109Z,618.39
2022-12-01T05:35:59.113Z,617.81
2022-12-01T05:36:59.116Z,616.71
2022-12-01T05:38:01.958Z,616.94
2022-12-01T05:38:59.116Z,616.9
2022-12-01T05:39:59.119Z,616.5
2022-12-01T05:40:59.125Z,616.51
2022-12-01T05:41:59.121Z,616.36
2022-12-01T05:42:59.129Z,615.71
2022-12-01T05:43:59.130Z,615.6
2022-12-01T05:44:59.131Z,614.81
2022-12-01T05:45:59.207Z,614.39
2022-12-01T05:46:59.130Z,614.01
2022-12-01T05:47:59.125Z,613.81
2022-12-01T05:48:59.172Z,614.19
2022-12-01T05:50:03.724Z,614.37
2022-12-01T05:50:59.131Z,613.5
2022-12-01T05:51:59.141Z,614.04
2022-12-01T05:52:59.134Z,613.76
2022-12-01T05:53:59.146Z,613.4
2022-12-01T05:54:59.139Z,613.59
2022-12-01T05:55:59.146Z,613.23
2022-12-01T05:56:59.152Z,613.13
2022-12-01T05:57:59.156Z,613.18
2022-12-01T05:58:59.154Z,613.02
2022-12-01T05:59:59.150Z,613.24
2022-12-01T06:00:59.150Z,613.31
2022-12-01T06:01:59.247Z,613.55
2022-12-01T06:02:59.155Z,613.55
2022-12-01T06:03:59.203Z,613.72
2022-12-01T06:05:00.188Z,614.43
2022-12-01T06:06:02.061Z,614.42
2022-12-01T06:06:59.158Z,614.65
2022-12-01T06:08:00.313Z,614.51
2022-12-01T06:08:59.165Z,614.81
2022-12-01T06:09:59.173Z,614.65
2022-12-01T06:10:59.177Z,615.2
2022-12-01T06:11:59.171Z,615.19
2022-12-01T06:12:59.167Z,615.2
2022-12-01T06:13:59.223Z,615.4
2022-12-01T06:14:59.168Z,615.94
2022-12-01T06:15:59.174Z,615.74
2022-12-01T06:17:02.351Z,615.04
2022-12-01T06:17:59.174Z,615.16
2022-12-01T06:18:59.206Z,616.2
2022-12-01T06:19:59.181Z,615.77
2022-12-01T06:20:59.181Z,615.55
2022-12-01T06:21:59.189Z,615.26
2022-12-01T06:22:59.186Z,614.84
2022-12-01T06:23:59.204Z,614.84
2022-12-01T06:24:59.189Z,614.18
2022-12-01T06:25:59.192Z,614
2022-12-01T06:26:59.194Z,613.6
2022-12-01T06:28:02.210Z,613.11
2022-12-01T06:28:59.214Z,613.17
2022-12-01T06:29:59.192Z,612.39
2022-12-01T06:31:03.097Z,612.43
2022-12-01T06:31:59.271Z,612.47
2022-12-01T06:32:59.243Z,612.94
2022-12-01T06:33:59.262Z,612.12
2022-12-01T06:34:59.206Z,612.52
2022-12-01T06:35:59.216Z,611.9
2022-12-01T06:36:59.209Z,611.99
2022-12-01T06:37:59.216Z,611.76
2022-12-01T06:38:59.213Z,611.76
2022-12-01T06:39:59.208Z,612.55
2022-12-01T06:40:59.211Z,612.48
2022-12-01T06:41:59.217Z,612.8
2022-12-01T06:42:59.223Z,612.75
2022-12-01T06:43:59.216Z,613.37
2022-12-01T06:44:59.225Z,613.71
2022-12-01T06:46:01.883Z,613.96
2022-12-01T06:46:59.224Z,613.93
2022-12-01T06:47:59.221Z,614.42
2022-12-01T06:48:59.247Z,614.46
2022-12-01T06:49:59.222Z,614.81
2022-12-01T06:50:59.233Z,615.09
2022-12-01T06:52:01.031Z,615.25
2022-12-01T06:52:59.431Z,615.22
2022-12-01T06:54:03.859Z,615.03
2022-12-01T06:54:59.232Z,615.56
2022-12-01T06:55:59.242Z,615.5
2022-12-01T06:56:59.239Z,615.87
2022-12-01T06:57:59.237Z,615.24
2022-12-01T06:58:59.245Z,615.93
2022-12-01T06:59:59.239Z,616.5
2022-12-01T07:00:59.407Z,616.71
2022-12-01T07:01:59.341Z,616.76
2022-12-01T07:02:59.302Z,617.76
2022-12-01T07:03:59.250Z,617.35
2022-12-01T07:04:59.313Z,618.26
2022-12-01T07:05:59.256Z,616.88
2022-12-01T07:06:59.253Z,616.59
2022-12-01T07:07:59.759Z,616.57
2022-12-01T07:08:59.252Z,616.54
2022-12-01T07:09:59.298Z,616.14
2022-12-01T07:10:59.265Z,616.89
2022-12-01T07:11:59.265Z,616.31
2022-12-01T07:12:59.268Z,617.1
2022-12-01T07:13:59.263Z,617.1
2022-12-01T07:14:59.282Z,617.03
2022-12-01T07:15:59.263Z,616.62
2022-12-01T07:16:59.320Z,616.33
2022-12-01T07:17:59.277Z,615.98
2022-12-01T07:18:59.282Z,615.05
2022-12-01T07:19:59.296Z,614.19
2022-12-01T07:20:59.306Z,613.38
2022-12-01T07:21:59.288Z,612.71
2022-12-01T07:22:59.285Z,612.32
2022-12-01T07:23:59.286Z,612.68
2022-12-01T07:24:59.312Z,611.85
2022-12-01T07:25:59.284Z,612.33
2022-12-01T07:26:59.313Z,611.81
2022-12-01T07:27:59.288Z,612.03
2022-12-01T07:28:59.284Z,612
2022-12-01T07:29:59.308Z,612.78
2022-12-01T07:30:59.330Z,612.55
2022-12-01T07:31:59.298Z,613.14
2022-12-01T07:32:59.297Z,614.32
2022-12-01T07:33:59.298Z,614.61
2022-12-01T07:34:59.327Z,615.75
2022-12-01T07:35:59.294Z,615.84
2022-12-01T07:36:59.323Z,616.65
2022-12-01T07:37:59.304Z,617.54
2022-12-01T07:39:02.342Z,617.29
2022-12-01T07:39:59.321Z,617.82
2022-12-01T07:40:59.359Z,618.32
2022-12-01T07:41:59.305Z,618.83
2022-12-01T07:42:59.308Z,619.26
2022-12-01T07:43:59.313Z,619.76
2022-12-01T07:44:59.345Z,620.93
2022-12-01T07:45:59.414Z,620.85
2022-12-01T07:46:59.312Z,622.12
2022-12-01T07:47:59.321Z,622.75
2022-12-01T07:48:59.325Z,623.31
2022-12-01T07:50:00.285Z,624.1
2022-12-01T07:50:59.441Z,625.87
2022-12-01T07:51:59.325Z,626.03
2022-12-01T07:52:59.346Z,627.5
2022-12-01T07:53:59.323Z,627.74
2022-12-01T07:54:59.331Z,627.94
2022-12-01T07:56:01.136Z,628.79
2022-12-01T07:56:59.333Z,629.52
2022-12-01T07:57:59.337Z,629.72
2022-12-01T07:58:59.338Z,630.09
2022-12-01T07:59:59.345Z,630.92
2022-12-01T08:00:59.335Z,630.92
2022-12-01T08:01:59.363Z,631.15
2022-12-01T08:02:59.360Z,631.8
2022-12-01T08:03:59.409Z,632.21
2022-12-01T08:04:59.344Z,632.19
2022-12-01T08:05:59.350Z,632.92
2022-12-01T08:06:59.351Z,632.94
2022-12-01T08:07:59.372Z,633.23
2022-12-01T08:08:59.369Z,633.83
2022-12-01T08:09:59.348Z,634.36
2022-12-01T08:10:59.357Z,635.44
2022-12-01T08:11:59.362Z,635.8
2022-12-01T08:12:59.358Z,636.72
2022-12-01T08:13:59.353Z,637.21
2022-12-01T08:14:59.366Z,637.75
2022-12-01T08:15:59.447Z,638.46
2022-12-01T08:16:59.359Z,639.01
2022-12-01T08:17:59.367Z,639.16
2022-12-01T08:18:59.360Z,640.04
2022-12-01T08:19:59.363Z,640.17
2022-12-01T08:20:59.368Z,641.46
2022-12-01T08:21:59.366Z,642.64
2022-12-01T08:22:59.368Z,643.89
2022-12-01T08:23:59.373Z,645.99
2022-12-01T08:24:59.404Z,646.72
2022-12-01T08:25:59.379Z,648.28
2022-12-01T08:26:59.380Z,649.33
2022-12-01T08:27:59.378Z,650.41
2022-12-01T08:28:59.388Z,651.86
2022-12-01T08:29:59.382Z,653.02
2022-12-01T08:30:59.458Z,654.94
2022-12-01T08:31:59.383Z,655.51
2022-12-01T08:33:02.390Z,656.54
2022-12-01T08:33:59.390Z,658.19
2022-12-01T08:34:59.398Z,659.62
2022-12-01T08:35:59.392Z,659.96
2022-12-01T08:36:59.388Z,661.71
2022-12-01T08:37:59.389Z,663.03
2022-12-01T08:38:59.399Z,664.35
2022-12-01T08:39:59.396Z,666.04
2022-12-01T08:40:59.422Z,667.34
2022-12-01T08:41:59.399Z,669.05
2022-12-01T08:42:59.404Z,670.1
2022-12-01T08:44:02.502Z,671.2
2022-12-01T08:44:59.436Z,672.48
2022-12-01T08:45:59.456Z,673.93
2022-12-01T08:46:59.467Z,674.39
2022-12-01T08:47:59.410Z,676.3
2022-12-01T08:48:59.420Z,677.39
2022-12-01T08:49:59.409Z,677.97
2022-12-01T08:50:59.409Z,678.92
2022-12-01T08:51:59.410Z,680.12
2022-12-01T08:52:59.418Z,680.48
2022-12-01T08:53:59.422Z,681.34
2022-12-01T08:55:02.538Z,682.18
2022-12-01T08:55:59.418Z,683.59
2022-12-01T08:56:59.442Z,684.61
2022-12-01T08:57:59.430Z,684.41
2022-12-01T08:58:59.429Z,685.65
2022-12-01T08:59:59.429Z,685.84
2022-12-01T09:00:59.430Z,686.7
2022-12-01T09:02:02.482Z,687.36
2022-12-01T09:02:59.481Z,687.71
2022-12-01T09:03:59.454Z,687.37
2022-12-01T09:04:59.429Z,688.31
2022-12-01T09:06:02.239Z,687.69
2022-12-01T09:06:59.437Z,688.4
2022-12-01T09:07:59.466Z,688.93
2022-12-01T09:08:59.451Z,688.77
2022-12-01T09:09:59.438Z,689.98
2022-12-01T09:10:59.475Z,690.37
2022-12-01T09:11:59.440Z,691.04
2022-12-01T09:12:59.464Z,691.04
2022-12-01T09:13:59.445Z,691.91
2022-12-01T09:14:59.468Z,691.76
2022-12-01T09:15:59.459Z,692.05
2022-12-01T09:16:59.447Z,693.23
2022-12-01T09:17:59.456Z,693.82
2022-12-01T09:18:59.456Z,694.27
2022-12-01T09:19:59.455Z,695.03
2022-12-01T09:20:59.465Z,696.13
2022-12-01T09:21:59.473Z,697.51
2022-12-01T09:22:59.455Z,698.75
2022-12-01T09:23:59.460Z,700.05
2022-12-01T09:24:59.461Z,701.72
2022-12-01T09:25:59.462Z,702.82
2022-12-01T09:26:59.467Z,703.76
2022-12-01T09:27:59.469Z,705.31
2022-12-01T09:28:59.491Z,706.09
2022-12-01T09:29:59.499Z,707.37
2022-12-01T09:30:59.540Z,708.37
2022-12-01T09:31:59.476Z,710.58
2022-12-01T09:32:59.477Z,711.61
2022-12-01T09:33:59.482Z,713.35
2022-12-01T09:34:59.478Z,715.72
2022-12-01T09:35:59.481Z,717.92
2022-12-01T09:36:59.485Z,719.38
2022-12-01T09:37:59.482Z,720.82
2022-12-01T09:38:59.487Z,722.28
2022-12-01T09:39:59.481Z,723.55
2022-12-01T09:40:59.580Z,724.19
2022-12-01T09:41:59.485Z,725.12
2022-12-01T09:42:59.490Z,726.7
2022-12-01T09:43:59.492Z,727.46
2022-12-01T09:44:59.522Z,728.74
2022-12-01T09:45:59.493Z,729.85
2022-12-01T09:46:59.535Z,731.6
2022-12-01T09:47:59.492Z,732.08
2022-12-01T09:48:59.491Z,734.06
2022-12-01T09:49:59.492Z,734.46
2022-12-01T09:50:59.496Z,735.75
2022-12-01T09:51:59.506Z,737.23
2022-12-01T09:52:59.502Z,738.86
2022-12-01T09:53:59.517Z,739.91
2022-12-01T09:54:59.501Z,741.3
2022-12-01T09:56:06.055Z,743.4
2022-12-01T09:56:59.504Z,745.26
2022-12-01T09:57:59.505Z,747.03
2022-12-01T09:58:59.512Z,749.05
2022-12-01T09:59:59.510Z,750.9
2022-12-01T10:00:59.591Z,751.95
2022-12-01T10:01:59.565Z,753.56
2022-12-01T10:02:59.512Z,755.22
2022-12-01T10:03:59.516Z,756.82
2022-12-01T10:04:59.540Z,759
2022-12-01T10:06:59.529Z,762.15
2022-12-01T10:07:59.554Z,764.08
2022-12-01T10:08:59.515Z,765.65
2022-12-01T10:09:59.515Z,767.48
2022-12-01T10:10:59.557Z,769
2022-12-01T10:11:59.518Z,771.15
2022-12-01T10:12:59.525Z,772.94
2022-12-01T10:13:59.521Z,774.49
2022-12-01T10:14:59.525Z,776.18
2022-12-01T10:15:59.636Z,777
2022-12-01T10:17:02.326Z,779.33
2022-12-01T10:17:59.532Z,780.32
2022-12-01T10:18:59.531Z,781.18
2022-12-01T10:19:59.530Z,782.79
2022-12-01T10:20:59.553Z,784.63
2022-12-01T10:21:59.535Z,785.84
2022-12-01T10:22:59.554Z,787.19
2022-12-01T10:23:59.540Z,788.64
2022-12-01T10:24:59.536Z,789.72
2022-12-01T10:25:59.566Z,790.86
2022-12-01T10:26:59.536Z,792.31
2022-12-01T10:27:59.538Z,794.81
2022-12-01T10:28:59.542Z,795.66
2022-12-01T10:29:59.542Z,796.79
2022-12-01T10:30:59.571Z,797.98
2022-12-01T10:31:59.592Z,799.14
2022-12-01T10:32:59.579Z,800.89
2022-12-01T10:33:59.551Z,801.76
2022-12-01T10:34:59.546Z,802.17
2022-12-01T10:35:59.571Z,802.9
2022-12-01T10:36:59.559Z,803.93
2022-12-01T10:37:59.659Z,804.78
2022-12-01T10:38:59.555Z,806.3
2022-12-01T10:39:59.552Z,806.55
2022-12-01T10:40:59.583Z,807.15
2022-12-01T10:41:59.595Z,807.56
2022-12-01T10:42:59.559Z,808.45
2022-12-01T10:43:59.558Z,810.2
2022-12-01T10:44:59.565Z,811.48
2022-12-01T10:45:59.646Z,812.1
2022-12-01T10:46:59.594Z,812.98
2022-12-01T10:47:59.571Z,813.89
2022-12-01T10:48:59.598Z,814.63
2022-12-01T10:49:59.567Z,814.65
2022-12-01T10:50:59.597Z,814.28
2022-12-01T10:51:59.577Z,814.29
2022-12-01T10:52:59.574Z,814.99
2022-12-01T10:53:59.571Z,814.25
2022-12-01T10:54:59.573Z,814.27
2022-12-01T10:55:59.603Z,813.65
2022-12-01T10:56:59.586Z,813.38
2022-12-01T10:58:00.828Z,813.78
2022-12-01T10:58:59.578Z,813.33
2022-12-01T11:00:02.605Z,813.98
2022-12-01T11:01:00.661Z,813.45
2022-12-01T11:01:59.824Z,813.46
2022-12-01T11:02:59.732Z,812.58
2022-12-01T11:03:59.630Z,812.01
2022-12-01T11:04:59.616Z,811.29
2022-12-01T11:05:59.620Z,811.31
2022-12-01T11:06:59.598Z,811.68
2022-12-01T11:07:59.639Z,812.76
2022-12-01T11:08:59.601Z,812.96
2022-12-01T11:09:59.596Z,813.57
2022-12-01T11:11:01.357Z,814.11
2022-12-01T11:11:59.603Z,814.37
2022-12-01T11:12:59.605Z,814.49
2022-12-01T11:13:59.598Z,815.37
2022-12-01T11:14:59.610Z,816.01
2022-12-01T11:15:59.612Z,817
2022-12-01T11:16:59.650Z,816.28
2022-12-01T11:17:59.605Z,817.28
2022-12-01T11:18:59.649Z,817.67
2022-12-01T11:19:59.702Z,818.55
2022-12-01T11:20:59.639Z,818.56
2022-12-01T11:22:02.620Z,819.01
2022-12-01T11:22:59.615Z,818.97
2022-12-01T11:23:59.620Z,819.44
2022-12-01T11:24:59.621Z,819.63
2022-12-01T11:25:59.615Z,820.11
2022-12-01T11:26:59.619Z,820.37
2022-12-01T11:27:59.618Z,821.47
2022-12-01T11:28:59.621Z,822.58
2022-12-01T11:29:59.624Z,823.3
2022-12-01T11:30:59.631Z,825.12
2022-12-01T11:31:59.645Z,826.15
2022-12-01T11:33:02.648Z,827.67
2022-12-01T11:33:59.636Z,828.91
2022-12-01T11:34:59.638Z,830.85
2022-12-01T11:35:59.632Z,833.27
2022-12-01T11:36:59.655Z,835.75
2022-12-01T11:38:28.155Z,837.96
2022-12-01T11:38:59.636Z,840.33
2022-12-01T11:39:59.641Z,841.95
2022-12-01T11:40:59.642Z,844.02
2022-12-01T11:41:59.642Z,845.44
2022-12-01T11:42:59.674Z,846.73
2022-12-01T12:15:59.430Z,882.82
2022-12-01T12:16:59.387Z,883.35
2022-12-01T12:17:59.472Z,884.31
2022-12-01T12:18:59.386Z,884.33
2022-12-01T12:20:07.482Z,885.31
2022-12-01T12:20:59.414Z,884.25
2022-12-01T12:21:59.389Z,884.12
2022-12-01T12:22:59.391Z,884.33
2022-12-01T12:23:59.397Z,884.75
2022-12-01T12:24:59.402Z,885.16
2022-12-01T12:25:59.418Z,884.83
2022-12-01T12:26:59.399Z,884.96
2022-12-01T12:27:59.405Z,884.17
2022-12-01T12:28:59.408Z,884.27
2022-12-01T12:29:59.403Z,884.84
2022-12-01T12:30:59.486Z,884.89
2022-12-01T12:31:59.436Z,885.59
2022-12-01T12:33:02.454Z,886.18
2022-12-01T12:33:59.409Z,887.05
2022-12-01T12:34:59.410Z,887.92
2022-12-01T12:35:59.432Z,888.54
2022-12-01T12:36:59.418Z,889.08
2022-12-01T12:37:59.458Z,890.06
2022-12-01T12:38:59.424Z,889.78
2022-12-01T12:39:59.434Z,890.58
2022-12-01T12:40:59.443Z,890.78
2022-12-01T12:41:59.424Z,891.3
2022-12-01T12:42:59.421Z,891.55
2022-12-01T12:44:02.445Z,891.51
2022-12-01T12:44:59.428Z,890.99
2022-12-01T12:45:59.525Z,890.68
2022-12-01T12:46:59.431Z,889.85
2022-12-01T12:47:59.463Z,889.68
2022-12-01T12:49:59.442Z,889.85
2022-12-01T12:50:59.467Z,889.27
2022-12-01T12:52:02.653Z,888.42
2022-12-01T12:52:59.437Z,888.12
2022-12-01T12:53:59.494Z,887.41
2022-12-01T12:54:59.452Z,886.88
2022-12-01T12:55:59.474Z,886
2022-12-01T12:56:59.441Z,883.89
2022-12-01T12:57:59.445Z,882.22
2022-12-01T12:58:59.443Z,880.88
2022-12-01T12:59:59.451Z,878.89
2022-12-01T13:00:59.475Z,878.51
2022-12-01T13:01:59.508Z,877.07
2022-12-01T13:02:59.525Z,876.18
2022-12-01T13:03:59.480Z,875.91
2022-12-01T13:04:59.468Z,875.11
2022-12-01T13:05:59.495Z,875.37